Bei Facebook empfehlenBei Twitter postenGoogle plusPinterest

Das Wetter im Erzgebirge am 21.04.2016

Wetter und Klima am 21.04.2016 Holzhau im Erzgebirge (630m ü.NN)
Letzte gemessene Temperatur und Uhrzeit der Messung23:45:00 Uhr0.80 °C
Temperatur (Maximum / Höchstwert) und Uhrzeit der Messung14:45:00 Uhr17.30 °C
Temperatur (Minimum / Tiefstwert) und Uhrzeit der Messung05:00:00-3.10 °C
Errechneter Absolutwert der Temperaturschwankungen zwischen Tmin und Tmax des Tages20.40 K
Errechnete Tagesmitteltemperatur6.97604 °C
Gesamt - Niederschlag des Tages (in flüssiger Form)0.00 Liter / m²
Luftdruck (Maximum / Höchstwert) und Zeitpunkt der Messung00:15:00 Uhr1023.20 hPa
Luftdruck (Minimum / Tiefstwert) und Zeitpunkt der Messung23:45:00 Uhr1015.00 hPa
Errechneter Absolutwert der Luftdruckschwankungen des Tages8.20 hPa
Höchste gemessene Windgeschwindigkeit und Uhrzeit der Messung23:45:00 Uhr0.00 km/h
Errechnete Windhäufigkeit in Relation zu den Messwerten des Tages0.00000 %
Niedrigste Windkühle (Windchill) und Zeitpunkt der Messung05:00:00 Uhr-3.10 °C
Taupunkt (Maximum / Höchstwert) und Uhrzeit der Messung08:45:00 Uhr6.50 °C
Taupunkt (Minimum / Tiefstwert) und Uhrzeit der Messung04:45:00-4.80 °C
Anzahl der automatisch eingelesenen Messwerte 96

Detaillierte Wetter- und Klima- Messwerte für den 21.04.2016 in Holzhau im Erzgebirge (630m ü.NN)
ZeitTemperaturLuftdruckRel. LuftfeuchteWindWindrichtungWindchillTaupunktNiederschlag l/m²
23:45:000.80 °C1015.00 hPa85.00 %-1.40 °C 
23:30:001.00 °C1015.00 hPa84.00 %-1.40 °C 
23:15:001.30 °C1015.00 hPa84.00 %-1.10 °C 
23:00:001.40 °C1015.10 hPa83.00 %-1.20 °C 
22:45:001.80 °C1015.10 hPa83.00 %-0.80 °C 
22:30:002.10 °C1015.10 hPa82.00 %-0.60 °C 
22:15:002.30 °C1015.20 hPa81.00 %-0.60 °C 
22:00:002.50 °C1015.30 hPa81.00 %-0.40 °C 
21:45:002.90 °C1015.30 hPa80.00 %-0.20 °C 
21:30:003.40 °C1015.30 hPa79.00 %0.10 °C 
21:15:004.10 °C1015.50 hPa78.00 %0.60 °C 
21:00:004.40 °C1015.50 hPa77.00 %0.70 °C 
20:45:004.60 °C1015.60 hPa75.00 %0.60 °C 
20:30:005.10 °C1015.80 hPa73.00 %0.70 °C 
20:15:005.80 °C1016.00 hPa72.00 %1.20 °C 
20:00:006.00 °C1015.90 hPa69.00 %0.80 °C 
19:45:006.90 °C1015.90 hPa67.00 %1.20 °C 
19:30:008.10 °C1015.90 hPa65.00 %1.90 °C 
19:15:009.20 °C1015.90 hPa61.00 %2.10 °C 
19:00:0010.80 °C1015.80 hPa59.00 %3.10 °C 
18:45:0012.20 °C1015.80 hPa56.00 %3.70 °C 
18:30:0013.10 °C1015.80 hPa54.00 %4.00 °C 
18:15:0013.80 °C1015.90 hPa52.00 %4.10 °C 
18:00:0014.30 °C1015.90 hPa50.00 %4.00 °C 
17:45:0014.90 °C1016.10 hPa49.00 %4.30 °C 
17:30:0015.40 °C1016.50 hPa48.00 %4.50 °C 
17:15:0015.90 °C1016.70 hPa47.00 %4.60 °C 
17:00:0016.30 °C1017.00 hPa47.00 %5.00 °C 
16:45:0016.60 °C1017.00 hPa46.00 %4.90 °C 
16:30:0016.80 °C1017.20 hPa46.00 %5.10 °C 
16:15:0017.20 °C1017.50 hPa46.00 %5.50 °C 
16:00:0017.20 °C1017.60 hPa45.00 %5.20 °C 
15:45:0017.10 °C1017.90 hPa45.00 %5.10 °C 
15:30:0017.10 °C1018.10 hPa45.00 %5.10 °C 
15:15:0016.70 °C1018.30 hPa45.00 %4.70 °C 
15:00:0017.00 °C1018.40 hPa44.00 %4.70 °C 
14:45:0017.30 °C1018.40 hPa44.00 %4.90 °C 
14:30:0017.30 °C1018.40 hPa43.00 %4.60 °C 
14:15:0016.90 °C1018.70 hPa43.00 %4.30 °C 
14:00:0016.90 °C1018.90 hPa43.00 %4.30 °C 
13:45:0016.70 °C1019.20 hPa43.00 %4.10 °C 
13:30:0016.30 °C1019.30 hPa43.00 %3.70 °C 
13:15:0016.30 °C1019.50 hPa43.00 %3.70 °C 
13:00:0016.50 °C1019.70 hPa44.00 %4.20 °C 
12:45:0016.30 °C1019.70 hPa46.00 %4.70 °C 
12:30:0015.90 °C1019.90 hPa48.00 %4.90 °C 
12:15:0015.60 °C1020.30 hPa48.00 %4.60 °C 
12:00:0015.30 °C1020.40 hPa49.00 %4.70 °C 
11:45:0015.10 °C1020.40 hPa50.00 %4.80 °C 
11:30:0014.90 °C1020.50 hPa52.00 %5.10 °C 
11:15:0014.60 °C1020.60 hPa52.00 %4.90 °C 
11:00:0014.20 °C1020.60 hPa53.00 %4.80 °C 
10:45:0013.90 °C1020.70 hPa55.00 %5.00 °C 
10:30:0013.40 °C1020.90 hPa56.00 %4.80 °C 
10:15:0013.00 °C1021.10 hPa57.00 %4.70 °C 
10:00:0012.60 °C1021.10 hPa60.00 %5.10 °C 
09:45:0012.10 °C1021.10 hPa64.00 %5.50 °C 
09:30:0011.60 °C1021.00 hPa67.00 %5.70 °C 
09:15:0011.10 °C1020.90 hPa71.00 %6.00 °C 
09:00:0010.50 °C1021.20 hPa75.00 %6.30 °C 
08:45:009.80 °C1021.30 hPa80.00 %6.50 °C 
08:30:008.90 °C1021.20 hPa84.00 %6.30 °C 
08:15:007.50 °C1021.20 hPa88.00 %5.60 °C 
08:00:005.80 °C1021.30 hPa89.00 %4.10 °C 
07:45:004.10 °C1021.30 hPa90.00 %2.60 °C 
07:30:002.90 °C1021.50 hPa90.00 %1.40 °C 
07:15:001.80 °C1021.40 hPa90.00 %0.30 °C 
07:00:001.10 °C1021.50 hPa90.00 %-0.40 °C 
06:45:000.50 °C1021.40 hPa90.00 %-0.90 °C 
06:30:00-0.10 °C1021.40 hPa91.00 %-1.50 °C 
06:15:00-1.20 °C1021.60 hPa91.00 %-2.60 °C 
06:00:00-2.40 °C1021.30 hPa90.00 %-4.00 °C 
05:45:00-2.50 °C1021.60 hPa90.00 %-4.10 °C 
05:30:00-2.50 °C1021.60 hPa90.00 %-4.10 °C 
05:15:00-2.70 °C1021.80 hPa90.00 %-4.30 °C 
05:00:00-3.10 °C1021.70 hPa90.00 %-4.70 °C 
04:45:00-3.10 °C1021.90 hPa89.00 %-4.80 °C 
04:30:00-3.10 °C1022.00 hPa89.00 %-4.80 °C 
04:15:00-2.70 °C1021.90 hPa89.00 %-4.40 °C 
04:00:00-2.80 °C1021.90 hPa89.00 %-4.50 °C 
03:45:00-2.80 °C1022.10 hPa89.00 %-4.50 °C 
03:30:00-2.70 °C1022.00 hPa88.00 %-4.60 °C 
03:15:00-2.70 °C1022.20 hPa88.00 %-4.60 °C 
03:00:00-2.50 °C1022.40 hPa89.00 %-4.20 °C 
02:45:00-2.40 °C1022.30 hPa89.00 %-4.10 °C 
02:30:00-2.10 °C1022.30 hPa88.00 %-4.00 °C 
02:15:00-2.20 °C1022.40 hPa88.00 %-4.10 °C 
02:00:00-2.20 °C1022.50 hPa88.00 %-4.10 °C 
01:45:00-2.20 °C1022.70 hPa88.00 %-4.10 °C 
01:30:00-2.20 °C1022.70 hPa87.00 %-4.30 °C 
01:15:00-2.20 °C1022.80 hPa87.00 %-4.30 °C 
01:00:00-2.10 °C1023.00 hPa87.00 %-4.20 °C 
00:45:00-2.10 °C1023.10 hPa87.00 %-4.20 °C 
00:30:00-2.20 °C1023.10 hPa86.00 %-4.50 °C 
00:15:00-2.20 °C1023.20 hPa86.00 %-4.50 °C 
00:00:00-2.10 °C1023.20 hPa85.00 %-4.50 °C 

Permanenter Link zu dieser Seite: Wetter im Erzgebirge am 21.04.2016
Performance-Info: Die Erstellung der Seite / Statistik(en) / Tabelle(n) erforderte 5 Datenbankserver-Abfrage(n) und dauerte 98 Millisekunden. (Dieser Messwert ist von der Gesamt-Auslastung des Servers abhängig.)
Erzgebirge - Wetter | Erzgebirge - Wetter (Mobilgeräte) | Komplette Klimadatenbank